Tiempo atmosférico en la estación meteorológica de Candeleda, Ávila (350 m.)



Fecha
DESCASC
Temp. máxima en grados centígrados (hora)
DESCASC
Temp. mínima en grados centígrados (hora)
DESCASC
Temp. media en grados centígrados
DESCASC
Racha de viento máxima en m/sg (hora)
DESCASC
Velocidad máxima media en intervalos de 10 minutos(hora)
DESCASC
Precipitaciones diarias en mm
DESCASC
Precipitaciones de 00:00 a 06:00 en mm
DESCASC
Precipitaciones de 06:00 a 12:00 en mm
DESCASC
Precipitaciones de 12:00 a 18:00 en mm
DESCASC
Precipitaciones de 18:00 a 24:00 en mm
DESCASC
05-04-2020 20.2 (17:00) 10 (07:30) 15.1 6.11 (16:40) 3.89 (19:10) 8 0 0 0 8
04-04-2020 20.3 (15:00) 4.5 (08:10) 12.4 9.72 (11:40) 6.39 (15:10) 0 0 0 0 0
03-04-2020 21.6 (18:10) 4 (07:50) 12.8 4.72 (16:00) 3.06 (16:00) 0 0 0 0 0
02-04-2020 19.5 (18:10) 3.1 (00:00) 11.3 7.5 (20:10) 4.72 (20:10) 0 0 0 0 0
01-04-2020 17.2 (17:30) 7.1 (00:00) 12.2 6.11 (15:40) 3.06 (17:00) 0 0 0 0 0
31-03-2020 12.7 (15:50) 4.2 (00:00) 8.4 8.33 (12:00) 4.44 (12:00) 12.8 0.2 6.4 2.2 4
30-03-2020 12.7 (00:30) 4.4 (00:00) 8.5 8.06 (16:10) 4.72 (15:00) 3 0 0.2 0.4 2.4
29-03-2020 21.2 (17:00) 3 (00:00) 12.1 6.39 (17:30) 3.33 (18:20) 0 0 0 0 0
28-03-2020 19.1 (17:40) 2 (00:00) 10.6 7.78 (14:20) 5 (14:20) 0 0 0 0 0
27-03-2020 14 (16:30) 4.4 (00:00) 9.2 15.28 (12:40) 9.17 (11:20) 0 0 0 0 0
26-03-2020 22.5 (16:30) 5.7 (00:00) 14.1 8.06 (18:10) 5 (18:10) 0 0 0 0 0
25-03-2020 20.5 (15:40) 8 (00:00) 14.3 10 (19:00) 7.22 (20:40) 0.8 0 0 0.8 0
24-03-2020 18.9 (14:30) 10.2 (00:00) 14.5 12.22 (12:30) 7.78 (12:40) 0.4 0 0.4 0 0
23-03-2020 17.6 (17:40) 9.1 (00:00) 13.4 15.28 (15:40) 8.89 (15:40) 0.2 0 0 0.2 0
22-03-2020 17.8 (15:10) 4.7 (07:30) 11.2 5.83 (17:20) 3.33 (17:10) 1.4 0 0 1.2 0.2
21-03-2020 13.9 (17:30) 6.6 (00:00) 10.2 15.56 (00:40) 9.17 (00:20) 16.2 0.6 15.4 0.2 0
20-03-2020 15.5 (19:30) 11.7 (00:00) 13.6 15.28 (21:40) 9.17 (20:50) 0.4 0 0.4 0 0
19-03-2020 16.8 (16:40) 9.9 (00:00) 13.3 10 (11:30) 6.39 (11:40) 0 0 0 0 0
18-03-2020 19.5 (15:10) 10.3 (00:00) 14.9 14.17 (11:30) 8.61 (11:10) 0 0 0 0 0
17-03-2020 18.6 (17:20) 2.5 (00:00) 10.6 13.89 (13:20) 9.17 (14:50) 0 0 0 0 0
16-03-2020 10.1 (13:30) 3.8 (00:00) 7 10.56 (13:50) 6.39 (14:00) 2.4 0 0 2.2 0.2
15-03-2020 22.3 (15:20) 8.4 (00:00) 15.3 10 (15:40) 5.28 (16:30) 0.8 0 0 0.8 0
14-03-2020 25.4 (16:50) 8.6 (00:00) 17 3.89 (16:00) 2.22 (16:00) 0 0 0 0 0
13-03-2020 23.5 (15:30) 9.4 (06:40) 16.4 6.39 (17:30) 4.44 (17:30) 0 0 0 0 0
12-03-2020 27.8 (17:10) 9.9 (00:00) 18.8 6.67 (18:40) 4.17 (18:30) 0 0 0 0 0
11-03-2020 27.4 (15:20) 8.1 (00:00) 17.8 3.33 (15:40) 2.22 (16:20) 0 0 0 0 0
10-03-2020 24.4 (16:50) 5.8 (00:00) 15.1 4.44 (16:20) 2.5 (16:20) 0 0 0 0 0

Gráficas

Temp. máximas Temp. mínimas Temp. medias Precipitaciones Rachas de viento máximas Velocidades máximas media en intervalos de 10 minutos

Datos horarios

Fecha y hora oficial Temperatura (ºC) Velocidad del viento (km/h) Dirección del viento Racha (km/h) Dirección de racha Precipitación (mm) Presión (hPa) Tendencia (hPa) Humedad (%)
2020-04-08 23:00:00 16.2 0 Calma 5 Nordeste 0 -- -- 81
2020-04-08 22:00:00 17.3 2 Nordeste 10 Norte 0 -- -- 75
2020-04-08 21:00:00 18.5 4 Norte 9 Norte 0 -- -- 73
2020-04-08 20:00:00 21.1 0 Calma 6 Sudeste 0 -- -- 63
2020-04-08 19:00:00 23.5 3 Nordeste 11 Sudoeste 0 -- -- 51
2020-04-08 18:00:00 24.8 2 Sudoeste 12 Este 0 -- -- 45
2020-04-08 17:00:00 24.7 3 Este 16 Sur 0 -- -- 49
2020-04-08 16:00:00 23.4 5 Sudeste 15 Este 0 -- -- 53
2020-04-08 15:00:00 21.7 5 Este 16 Nordeste 0 -- -- 62
2020-04-08 14:00:00 22.4 5 Sudoeste 15 Este 0 -- -- 62
2020-04-08 13:00:00 20.6 6 Este 16 Sudeste 0 -- -- 67
2020-04-08 12:00:00 20.1 7 Sudeste 20 Sur 0 -- -- 72
2020-04-08 11:00:00 19 4 Nordeste 8 Este 0 -- -- 73
2020-04-08 10:00:00 15.4 0 Calma 5 Sudeste 0 -- -- 85
2020-04-08 09:00:00 14.3 0 Calma 7 Nordeste 0 -- -- 93
2020-04-08 08:00:00 11.8 5 Sur 8 Sur 0 -- -- 98
2020-04-08 07:00:00 11.8 3 Este 9 Nordeste 0 -- -- 98
2020-04-08 06:00:00 11.7 0 Calma 6 Este 0 -- -- 97
2020-04-08 05:00:00 11.5 5 Nordeste 8 Este 0 -- -- 96
2020-04-08 04:00:00 12.4 2 Nordeste 6 Norte 0 -- -- 96
2020-04-08 03:00:00 12.2 4 Norte 6 Este 0 -- -- 97
2020-04-08 02:00:00 12.1 3 Norte 5 Norte 0 -- -- 97
2020-04-08 01:00:00 11.8 0 Calma 7 Nordeste 0 -- -- 97
2020-04-08 00:00:00 12.4 4 Este 6 Este 0 -- -- 95
2020-04-07 23:00:00 13.5 0 Calma 5 Oeste 0 -- -- 93
2020-04-07 22:00:00 15.6 3 Noroeste 6 Norte 0 -- -- 90
2020-04-07 21:00:00 17.1 5 Oeste 10 Sudoeste 0 -- -- 82
2020-04-07 20:00:00 18.1 8 Sudoeste 18 Sudoeste 0 -- -- 76
2020-04-07 19:00:00 20.7 9 Sudoeste 15 Sudoeste 0 -- -- 64
2020-04-07 18:00:00 22.5 2 Oeste 13 Sudoeste 0 -- -- 59
2020-04-07 17:00:00 20.9 5 Este 14 Sudeste 0 -- -- 65
2020-04-07 16:00:00 20.8 4 Sur 9 Sudoeste 0 -- -- 69
2020-04-07 15:00:00 18.8 2 Nordeste 10 Este 0 -- -- 73
2020-04-07 14:00:00 17.1 6 Este 12 Este 0 -- -- 80
2020-04-07 13:00:00 15.7 6 Este 17 Nordeste 0 -- -- 87
2020-04-07 12:00:00 15.5 2 Este 6 Nordeste 0.2 -- -- 93
2020-04-07 11:00:00 13.9 2 Noroeste 7 Este 2.8 -- -- 97
2020-04-07 10:00:00 13.5 5 Este 9 Este 0.4 -- -- 98
2020-04-07 09:00:00 13.2 3 Oeste 8 Oeste 0.2 -- -- 98
2020-04-07 08:00:00 13 0 Calma 4 Nordeste 0 -- -- 98
2020-04-07 07:00:00 12.8 0 Calma 5 Este 0 -- -- 98
2020-04-07 06:00:00 12.9 0 Calma 3 Noroeste 0 -- -- 98
2020-04-07 05:00:00 13.1 0 Calma 6 Este 0.4 -- -- 97
2020-04-07 04:00:00 13.3 2 Sudeste 7 Norte 0.2 -- -- 97
2020-04-07 03:00:00 13.7 4 Norte 6 Norte 0 -- -- 97
2020-04-07 02:00:00 13.8 3 Sudoeste 4 Norte 0 -- -- 96
2020-04-07 01:00:00 13.8 0 Calma 6 Nordeste 0 -- -- 96
2020-04-07 00:00:00 13.9 2 Norte 4 Sudeste 0 -- -- 95
2020-04-06 23:00:00 14.2 2 Sudoeste 8 Sudoeste 0 -- -- 92
2020-04-06 22:00:00 14.3 5 Sudoeste 8 Sudoeste 0 -- -- 91
2020-04-06 21:00:00 15.1 4 Oeste 7 Oeste 0 -- -- 87
2020-04-06 20:00:00 16 3 Oeste 9 Oeste 0 -- -- 80
2020-04-06 19:00:00 17 10 Oeste 17 Sudoeste 0 -- -- 69
2020-04-06 18:00:00 18.4 7 Oeste 13 Oeste 0 -- -- 63
2020-04-06 17:00:00 19.4 7 Oeste 14 Oeste 0 -- -- 58
2020-04-06 16:00:00 20 6 Sudoeste 10 Oeste 0 -- -- 60
2020-04-06 15:00:00 18.7 2 Sur 10 Oeste 0 -- -- 64
2020-04-06 14:00:00 17.4 5 Noroeste 18 Sudoeste 0 -- -- 67
2020-04-06 13:00:00 17.6 8 Sudoeste 17 Sur 0 -- -- 68
2020-04-06 12:00:00 17.7 4 Sur 9 Sur 0 -- -- 77
2020-04-06 11:00:00 14.7 6 Sudoeste 10 Sur 0 -- -- 97
2020-04-06 10:00:00 14.2 6 Noroeste 13 Oeste 0 -- -- 98
2020-04-06 09:00:00 13.6 10 Sudoeste 18 Sudoeste 0 -- -- 99
2020-04-06 08:00:00 13.5 8 Oeste 15 Oeste 0 -- -- 99
2020-04-06 07:00:00 13.7 8 Oeste 10 Oeste 0 -- -- 99
2020-04-06 06:00:00 13.8 4 Oeste 8 Oeste 0.4 -- -- 99
2020-04-06 05:00:00 13.8 4 Oeste 8 Oeste 1 -- -- 98
2020-04-06 04:00:00 13.9 3 Noroeste 10 Sudoeste 4 -- -- 97
2020-04-06 03:00:00 14 3 Sudeste 10 Oeste 2 -- -- 96
2020-04-06 02:00:00 14.2 4 Oeste 8 Oeste 1 -- -- 96
2020-04-06 01:00:00 14.3 5 Sudoeste 14 Oeste 1.6 -- -- 95
2020-04-06 00:00:00 14.4 6 Noroeste 9 Noroeste 0.6 -- -- 95
2020-04-05 23:00:00 14 5 Noroeste 11 Noroeste 3.8 -- -- 96
2020-04-05 22:00:00 14.1 5 Noroeste 13 Oeste 3 -- -- 93
2020-04-05 21:00:00 15.6 3 Sudoeste 11 Noroeste 0.4 -- -- 83
2020-04-05 20:00:00 16.6 9 Norte 19 Norte 0.2 -- -- 74
2020-04-05 19:00:00 17.2 10 Oeste 13 Oeste 0 -- -- 74
2020-04-05 18:00:00 18.9 3 Este 19 Nordeste 0 -- -- 57
2020-04-05 17:00:00 20.2 12 Nordeste 22 Este 0 -- -- 52
2020-04-05 16:00:00 19.1 13 Este 20 Nordeste 0 -- -- 56
2020-04-05 15:00:00 19.9 9 Este 20 Nordeste 0 -- -- 53
2020-04-05 14:00:00 18.6 9 Este 21 Este 0 -- -- 54
2020-04-05 13:00:00 18.6 8 Este 15 Nordeste 0 -- -- 52
2020-04-05 12:00:00 17.4 6 Este 19 Este 0 -- -- 57
2020-04-05 11:00:00 15.5 13 Este 21 Este 0 -- -- 72
2020-04-05 10:00:00 14 3 Este 6 Este 0 -- -- 75
2020-04-05 09:00:00 11.3 4 Sudeste 5 Sudeste 0 -- -- 84
2020-04-05 08:00:00 10.4 2 Oeste 4 Este 0 -- -- 87
2020-04-05 07:00:00 10.4 4 Este 8 Nordeste 0 -- -- 83
2020-04-05 06:00:00 12.6 5 Nordeste 8 Nordeste 0 -- -- 72
2020-04-05 05:00:00 12.3 5 Nordeste 9 Nordeste 0 -- -- 75
2020-04-05 04:00:00 12.8 3 Sur 9 Noroeste 0 -- -- 75
2020-04-05 03:00:00 14.2 7 Noroeste 11 Noroeste 0 -- -- 64
2020-04-05 02:00:00 12.7 4 Oeste 8 Oeste 0 -- -- 79
2020-04-05 01:00:00 14.1 3 Oeste 9 Oeste 0 -- -- 65
2020-04-05 00:00:00 15.3 5 Noroeste 10 Norte 0 -- -- 55
2020-04-04 23:00:00 14.9 5 Noroeste 13 Oeste 0 -- -- 59
2020-04-04 22:00:00 14.9 3 Noroeste 4 Noroeste 0 -- -- 63
2020-04-04 21:00:00 15.6 0 Calma 9 Este 0 -- -- 62
2020-04-04 20:00:00 17.8 3 Este 18 Este 0 -- -- 53
2020-04-04 19:00:00 18.2 7 Este 17 Este 0 -- -- 53
2020-04-04 18:00:00 19.3 11 Este 23 Este 0 -- -- 45
2020-04-04 17:00:00 20 8 Este 24 Nordeste 0 -- -- 41
2020-04-04 16:00:00 19.5 14 Este 33 Este 0 -- -- 38
2020-04-04 15:00:00 20.3 18 Este 31 Este 0 -- -- 37
2020-04-04 14:00:00 19.5 19 Este 32 Este 0 -- -- 42
2020-04-04 13:00:00 18.8 18 Este 32 Este 0 -- -- 51
2020-04-04 12:00:00 17.5 20 Este 35 Este 0 -- -- 54
2020-04-04 11:00:00 15.5 11 Este 21 Este 0 -- -- 60
2020-04-04 10:00:00 13.6 3 Noroeste 8 Oeste 0 -- -- 65
2020-04-04 09:00:00 7.8 7 Oeste 11 Noroeste 0 -- -- 85
2020-04-04 08:00:00 5 0 Calma 6 Noroeste 0 -- -- 91
2020-04-04 07:00:00 5.2 2 Sudeste 6 Norte 0 -- -- 91
2020-04-04 06:00:00 5 2 Este 6 Oeste 0 -- -- 90
2020-04-04 05:00:00 6.4 2 Oeste 6 Sudeste 0 -- -- 87
2020-04-04 04:00:00 6.2 3 Sudeste 5 Sudeste 0 -- -- 87
2020-04-04 03:00:00 7.6 3 Este 6 Norte 0 -- -- 84
2020-04-04 02:00:00 8.3 3 Nordeste 8 Nordeste 0 -- -- 82
2020-04-04 01:00:00 8.9 2 Norte 6 Este 0 -- -- 79
2020-04-04 00:00:00 10.1 2 Este 5 Este 0 -- -- 71
2020-04-03 23:00:00 11.8 2 Norte 6 Este 0 -- -- 69
2020-04-03 22:00:00 13.1 7 Norte 11 Norte 0 -- -- 64
2020-04-03 21:00:00 15.5 2 Noroeste 5 Sudoeste 0 -- -- 55
2020-04-03 20:00:00 21.5 2 Sudeste 10 Sur 0 -- -- 36
2020-04-03 19:00:00 20.9 6 Sur 13 Sur 0 -- -- 38
2020-04-03 18:00:00 21.2 7 Sur 14 Sur 0 -- -- 37
2020-04-03 17:00:00 21.1 7 Sudeste 15 Sur 0 -- -- 38
2020-04-03 16:00:00 19.8 11 Sur 17 Sur 0 -- -- 41
2020-04-03 15:00:00 19 8 Sur 17 Sur 0 -- -- 46
2020-04-03 14:00:00 18.3 8 Sudeste 15 Sudeste 0 -- -- 48
2020-04-03 13:00:00 17.2 6 Este 13 Sudeste 0 -- -- 51
2020-04-03 12:00:00 17.1 3 Sudeste 8 Este 0 -- -- 50
2020-04-03 11:00:00 14.9 5 Este 8 Este 0 -- -- 57
2020-04-03 10:00:00 12.1 2 Sudeste 5 Este 0 -- -- 68
2020-04-03 09:00:00 8 3 Este 6 Nordeste 0 -- -- 84
2020-04-03 08:00:00 4.3 0 Calma 5 Norte 0 -- -- 90
2020-04-03 07:00:00 5 0 Calma 5 Norte 0 -- -- 87
2020-04-03 06:00:00 5.3 0 Calma 5 Este 0 -- -- 92
2020-04-03 05:00:00 6.4 3 Nordeste 6 Norte 0 -- -- 87
2020-04-03 04:00:00 6.3 3 Noroeste 6 Noroeste 0 -- -- 88
2020-04-03 03:00:00 6.5 2 Norte 6 Sudeste 0 -- -- 85
2020-04-03 02:00:00 9 4 Norte 8 Norte 0 -- -- 77
2020-04-03 01:00:00 8.3 3 Norte 8 Oeste 0 -- -- 82
2020-04-03 00:00:00 9.1 3 Noroeste 11 Oeste 0 -- -- 82
2020-04-02 23:00:00 11 4 Noroeste 10 Noroeste 0 -- -- 79
2020-04-02 22:00:00 11.6 2 Noroeste 11 Este 0 -- -- 74
2020-04-02 21:00:00 12.8 2 Nordeste 27 Este 0 -- -- 68
2020-04-02 20:00:00 15.8 15 Este 25 Este 0 -- -- 53
2020-04-02 19:00:00 19.1 6 Oeste 21 Sudoeste 0 -- -- 44
2020-04-02 18:00:00 19.2 11 Sudoeste 19 Sur 0 -- -- 46
2020-04-02 17:00:00 17.5 7 Sudoeste 18 Sur 0 -- -- 50
2020-04-02 16:00:00 17.9 8 Sur 19 Sudeste 0 -- -- 50
2020-04-02 15:00:00 17.5 8 Sudeste 17 Sur 0 -- -- 53
2020-04-02 14:00:00 16.3 7 Sur 18 Sudoeste 0 -- -- 58
2020-04-02 13:00:00 15.2 9 Sudeste 16 Sur 0 -- -- 57
2020-04-02 12:00:00 15.3 9 Sudeste 13 Sudeste 0 -- -- 58
2020-04-02 11:00:00 14.2 4 Sur 8 Sudeste 0 -- -- 62
2020-04-02 10:00:00 10.3 3 Este 6 Nordeste 0 -- -- 75
2020-04-02 09:00:00 6.7 0 Calma 6 Nordeste 0 -- -- 89
2020-04-02 08:00:00 3.2 3 Este 6 Este 0 -- -- 94
2020-04-02 07:00:00 3.8 4 Este 8 Este 0 -- -- 94
2020-04-02 06:00:00 5.2 4 Norte 14 Sudeste 0 -- -- 92
2020-04-02 05:00:00 4 3 Este 5 Este 0 -- -- 91
2020-04-02 04:00:00 5.3 2 Este 6 Este 0 -- -- 90
2020-04-02 03:00:00 5.4 4 Este 7 Este 0 -- -- 88
2020-04-02 02:00:00 5.1 3 Este 5 Nordeste 0 -- -- 90
2020-04-02 01:00:00 5.6 3 Este 6 Este 0 -- -- 85
2020-04-02 00:00:00 7.8 4 Noroeste 10 Norte 0 -- -- 74
2020-04-01 23:00:00 8 6 Noroeste 14 Sur 0 -- -- 78
2020-04-01 22:00:00 8.3 0 Calma 9 Norte 0 -- -- 73
2020-04-01 21:00:00 10.1 5 Norte 8 Norte 0 -- -- 68
2020-04-01 20:00:00 15.4 3 Sur 14 Sur 0 -- -- 48
2020-04-01 19:00:00 15.5 9 Sur 17 Sur 0 -- -- 44
2020-04-01 18:00:00 17 8 Sur 18 Sur 0 -- -- 44
2020-04-01 17:00:00 16.2 11 Sudoeste 21 Sudoeste 0 -- -- 44
2020-04-01 16:00:00 16.1 8 Sur 22 Sudoeste 0 -- -- 46
2020-04-01 15:00:00 14.8 5 Sur 13 Sur 0 -- -- 47
2020-04-01 14:00:00 13.8 7 Sudoeste 17 Sudoeste 0 -- -- 54
2020-04-01 13:00:00 13.2 5 Sudoeste 13 Sur 0 -- -- 68
2020-04-01 12:00:00 11.9 2 Oeste 6 Norte 0 -- -- 78
2020-04-01 11:00:00 9.8 4 Sudeste 6 Sur 0 -- -- 94
2020-04-01 10:00:00 8.8 0 Calma 4 Oeste 0 -- -- 97
2020-04-01 09:00:00 7.3 2 Sur 6 Sur 0 -- -- 98
2020-04-01 08:00:00 7.3 2 Nordeste 10 Sur 0 -- -- 99
2020-04-01 07:00:00 7.3 0 Calma 12 Sur 0 -- -- 98
2020-04-01 06:00:00 7.8 3 Oeste 11 Sudoeste 0 -- -- 98
2020-04-01 05:00:00 8.4 2 Oeste 8 Sur 0 -- -- 98
2020-04-01 04:00:00 8.7 2 Norte 9 Norte 0 -- -- 97
2020-04-01 03:00:00 8.4 6 Oeste 16 Sudoeste 0 -- -- 98
2020-04-01 02:00:00 8.3 2 Oeste 8 Este 0 -- -- 97
2020-04-01 01:00:00 8.6 5 Nordeste 7 Este 0 -- -- 96
2020-04-01 00:00:00 8.6 3 Norte 6 Oeste 0 -- -- 95
2020-03-31 23:00:00 8.9 0 Calma 6 Nordeste 0 -- -- 94
2020-03-31 22:00:00 9.4 3 Norte 15 Nordeste 1.8 -- -- 94
2020-03-31 21:00:00 10 3 Norte 8 Oeste 0.2 -- -- 90
2020-03-31 20:00:00 10.6 7 Nordeste 20 Este 0 -- -- 87
2020-03-31 19:00:00 10.2 6 Nordeste 13 Nordeste 2 -- -- 94
2020-03-31 18:00:00 10.4 3 Este 17 Este 1.4 -- -- 88
2020-03-31 17:00:00 11.4 10 Este 27 Este 0.2 -- -- 82
2020-03-31 16:00:00 12.5 10 Este 21 Este 0 -- -- 74
2020-03-31 15:00:00 10.1 4 Noroeste 9 Oeste 0 -- -- 88
2020-03-31 14:00:00 9.2 4 Sudoeste 12 Oeste 0.4 -- -- 89
2020-03-31 13:00:00 8.6 5 Oeste 26 Nordeste 0.2 -- -- 86
2020-03-31 12:00:00 7.9 16 Este 30 Este 0.4 -- -- 90
2020-03-31 11:00:00 6.1 0 Calma 4 Sudoeste 1.4 -- -- 95
2020-03-31 10:00:00 5 0 Calma 4 Noroeste 1.6 -- -- 95
2020-03-31 09:00:00 4.5 0 Calma 8 Este 1 -- -- 95
2020-03-31 08:00:00 4.3 4 Este 9 Este 1.2 -- -- 94
2020-03-31 07:00:00 4.3 4 Nordeste 13 Sudeste 0.8 -- -- 93
2020-03-31 06:00:00 4.3 8 Noroeste 13 Este 0 -- -- 93
2020-03-31 05:00:00 4.4 4 Sudoeste 12 Nordeste 0 -- -- 91
2020-03-31 04:00:00 4.4 5 Este 10 Nordeste 0.2 -- -- 92
2020-03-31 03:00:00 4.4 8 Este 14 Este 0 -- -- 89
2020-03-31 02:00:00 4.3 8 Este 18 Este 0 -- -- 91
2020-03-31 01:00:00 4.4 11 Este 19 Este 0 -- -- 93
2020-03-31 00:00:00 4.4 9 Este 22 Este 0.4 -- -- 94
2020-03-30 23:00:00 4.7 6 Este 20 Este 0.4 -- -- 94
2020-03-30 22:00:00 4.8 11 Este 23 Este 0.4 -- -- 93
2020-03-30 21:00:00 5.4 13 Este 21 Este 0.4 -- -- 92
2020-03-30 20:00:00 6.2 13 Este 22 Este 0.4 -- -- 90
2020-03-30 19:00:00 6.8 15 Este 26 Este 0.4 -- -- 88
2020-03-30 18:00:00 7.5 10 Este 25 Este 0.4 -- -- 84
2020-03-30 17:00:00 8.3 10 Este 29 Este 0 -- -- 79
2020-03-30 16:00:00 10.2 15 Este 27 Este 0 -- -- 66
2020-03-30 15:00:00 10.6 17 Este 28 Este 0 -- -- 64
2020-03-30 14:00:00 10.7 16 Nordeste 27 Nordeste 0 -- -- 62
2020-03-30 13:00:00 9.8 13 Nordeste 22 Nordeste 0 -- -- 72
2020-03-30 12:00:00 10 16 Este 22 Este 0 -- -- 74
2020-03-30 11:00:00 9.9 11 Este 18 Este 0 -- -- 82
2020-03-30 10:00:00 9.7 2 Nordeste 10 Este 0.2 -- -- 83
2020-03-30 09:00:00 9.7 5 Este 11 Este 0 -- -- 88
2020-03-30 08:00:00 10 4 Oeste 17 Este 0 -- -- 86
2020-03-30 07:00:00 11.4 11 Nordeste 18 Este 0 -- -- 77
2020-03-30 06:00:00 10.6 7 Nordeste 17 Nordeste 0 -- -- 80
2020-03-30 05:00:00 10.9 10 Este 15 Nordeste 0 -- -- 77
2020-03-30 04:00:00 10.9 0 Calma 5 Este 0 -- -- 76
2020-03-30 03:00:00 11.3 2 Nordeste 9 Nordeste 0 -- -- 74
2020-03-30 02:00:00 11.7 8 Este 13 Este 0 -- -- 72
2020-03-30 01:00:00 12.2 5 Nordeste 8 Nordeste 0 -- -- 73
2020-03-30 00:00:00 12.3 4 Este 6 Este 0 -- -- 70
2020-03-29 23:00:00 12.6 3 Nordeste 6 Nordeste 0 -- -- 68
2020-03-29 22:00:00 14.2 3 Oeste 8 Noroeste 0 -- -- 57
2020-03-29 21:00:00 15.7 4 Noroeste 9 Oeste 0 -- -- 50
2020-03-29 20:00:00 17.3 6 Oeste 17 Sudoeste 0 -- -- 48
2020-03-29 19:00:00 19.2 11 Sudoeste 19 Sudoeste 0 -- -- 37
2020-03-29 18:00:00 20.8 12 Sur 23 Sudoeste 0 -- -- 35
2020-03-29 17:00:00 21.2 10 Sudoeste 21 Sudoeste 0 -- -- 34
2020-03-29 16:00:00 20.1 8 Sur 22 Sur 0 -- -- 38
2020-03-29 15:00:00 19.3 7 Sudoeste 17 Sudoeste 0 -- -- 39
2020-03-29 14:00:00 17.8 5 Este 12 Sudeste 0 -- -- 46
2020-03-29 13:00:00 15.5 5 Sudeste 11 Este 0 -- -- 49
2020-03-29 12:00:00 15.7 4 Sudeste 7 Sur 0 -- -- 49
2020-03-29 11:00:00 13.6 0 Calma 4 Oeste 0 -- -- 57
2020-03-29 10:00:00 8.6 2 Este 4 Este 0 -- -- 71
2020-03-29 09:00:00 6.3 2 Sur 3 Sur 0 -- -- 82
2020-03-29 08:00:00 3.1 3 Nordeste 6 Este 0 -- -- 88
2020-03-29 07:00:00 3.4 3 Este 5 Oeste 0 -- -- 86
2020-03-29 06:00:00 4.2 3 Oeste 5 Oeste 0 -- -- 81
2020-03-29 05:00:00 4.6 0 Calma 7 Este 0 -- -- 82
2020-03-29 03:00:00 6.1 5 Este 7 Este 0 -- -- 76
2020-03-29 01:00:00 6.5 3 Este 6 Noroeste 0 -- -- 74
2020-03-29 00:00:00 7.5 3 Norte 6 Noroeste 0 -- -- 71
2020-03-28 23:00:00 8.3 4 Este 7 Norte 0 -- -- 65
2020-03-28 22:00:00 10.2 4 Norte 11 Norte 0 -- -- 58
2020-03-28 21:00:00 11.4 6 Norte 9 Norte 0 -- -- 55
2020-03-28 20:00:00 12.6 4 Norte 6 Norte 0 -- -- 51
2020-03-28 19:00:00 16.7 3 Este 15 Este 0 -- -- 39
2020-03-28 18:00:00 18.8 6 Este 17 Este 0 -- -- 32
2020-03-28 17:00:00 18.7 10 Sudeste 21 Este 0 -- -- 32
2020-03-28 16:00:00 17.9 10 Este 22 Este 0 -- -- 35
2020-03-28 15:00:00 17.7 13 Este 28 Este 0 -- -- 38
2020-03-28 14:00:00 16.6 15 Este 27 Sudeste 0 -- -- 37
2020-03-28 13:00:00 16.1 13 Sudeste 23 Este 0 -- -- 43
2020-03-28 12:00:00 15.1 8 Sur 22 Este 0 -- -- 50
2020-03-28 11:00:00 14 5 Este 13 Nordeste 0 -- -- 54
2020-03-28 10:00:00 13 3 Norte 7 Noroeste 0 -- -- 55
2020-03-28 09:00:00 10.1 4 Sudeste 8 Sudeste 0 -- -- 63
2020-03-28 08:00:00 5.9 0 Calma 3 Sudeste 0 -- -- 81
2020-03-28 07:00:00 2.2 0 Calma 6 Oeste 0 -- -- 89
2020-03-28 06:00:00 2.2 3 Sudoeste 9 Nordeste 0 -- -- 86
2020-03-28 05:00:00 3.1 7 Nordeste 9 Nordeste 0 -- -- 85
2020-03-28 04:00:00 3.1 2 Nordeste 9 Nordeste 0 -- -- 83
2020-03-28 03:00:00 4.2 0 Calma 8 Sudeste 0 -- -- 82
2020-03-28 02:00:00 5.1 3 Oeste 6 Oeste 0 -- -- 78
2020-03-28 01:00:00 5.6 2 Noroeste 8 Norte 0 -- -- 74
2020-03-28 00:00:00 4.9 3 Nordeste 9 Este 0 -- -- 77
2020-03-27 23:00:00 5.3 3 Este 6 Este 0 -- -- 74
2020-03-27 22:00:00 6.7 4 Este 6 Nordeste 0 -- -- 66
2020-03-27 21:00:00 7.7 3 Nordeste 9 Este 0 -- -- 62
2020-03-27 20:00:00 9 8 Este 31 Nordeste 0 -- -- 57
2020-03-27 19:00:00 11.8 21 Este 38 Este 0 -- -- 48
2020-03-27 18:00:00 13.1 22 Este 37 Este 0 -- -- 46
2020-03-27 17:00:00 13.8 18 Este 36 Este 0 -- -- 46
2020-03-27 16:00:00 13.3 23 Este 38 Este 0 -- -- 46
2020-03-27 15:00:00 12.5 19 Nordeste 34 Este 0 -- -- 47
2020-03-27 14:00:00 10.6 23 Este 48 Este 0 -- -- 59
2020-03-27 13:00:00 10.7 25 Este 55 Este 0 -- -- 58
2020-03-27 12:00:00 10.3 31 Este 53 Este 0 -- -- 57
2020-03-27 11:00:00 10.1 32 Este 49 Nordeste 0 -- -- 55
2020-03-27 10:00:00 11.1 28 Este 48 Este 0 -- -- 51
2020-03-27 09:00:00 8.6 22 Este 36 Este 0 -- -- 58
2020-03-27 08:00:00 7.6 10 Nordeste 21 Nordeste 0 -- -- 59
2020-03-27 07:00:00 6.6 10 Nordeste 20 Nordeste 0 -- -- 63
2020-03-27 06:00:00 6 4 Nordeste 20 Este 0 -- -- 63
2020-03-27 05:00:00 4.5 5 Este 12 Este 0 -- -- 75
2020-03-27 04:00:00 5.7 2 Noroeste 6 Nordeste 0 -- -- 68
2020-03-27 03:00:00 6.8 0 Calma 7 Nordeste 0 -- -- 63
2020-03-27 02:00:00 8 5 Nordeste 14 Nordeste 0 -- -- 58
2020-03-27 01:00:00 8.6 5 Norte 11 Nordeste 0 -- -- 57
2020-03-27 00:00:00 9.3 6 Norte 15 Este 0 -- -- 54
2020-03-26 23:00:00 10.4 3 Norte 9 Noroeste 0 -- -- 50
2020-03-26 22:00:00 10.6 2 Sur 15 Este 0 -- -- 46
2020-03-26 21:00:00 12.3 0 Calma 9 Este 0 -- -- 39
2020-03-26 20:00:00 14.1 0 Calma 21 Noroeste 0 -- -- 38
2020-03-26 19:00:00 19.3 9 Noroeste 29 Noroeste 0 -- -- 26
2020-03-26 18:00:00 21 11 Noroeste 26 Oeste 0 -- -- 28
2020-03-26 17:00:00 21.4 14 Oeste 24 Oeste 0 -- -- 30
2020-03-26 16:00:00 20.9 11 Sur 18 Sur 0 -- -- 39
2020-03-26 15:00:00 19.4 9 Sudeste 16 Sudeste 0 -- -- 47
2020-03-26 14:00:00 18.8 5 Sur 16 Sudeste 0 -- -- 43
2020-03-26 13:00:00 17.5 8 Sur 16 Sudoeste 0 -- -- 50
2020-03-26 12:00:00 16.8 5 Sur 15 Este 0 -- -- 61
2020-03-26 11:00:00 15.1 8 Este 16 Este 0 -- -- 68
2020-03-26 10:00:00 14.1 8 Este 14 Este 0 -- -- 75
2020-03-26 09:00:00 11.6 5 Este 9 Nordeste 0 -- -- 82
2020-03-26 08:00:00 9.1 3 Norte 15 Nordeste 0 -- -- 91
2020-03-26 07:00:00 5.9 6 Nordeste 10 Este 0 -- -- 97
2020-03-26 06:00:00 6.4 5 Noroeste 9 Noroeste 0 -- -- 98
2020-03-26 05:00:00 6.5 3 Nordeste 9 Este 0 -- -- 98
2020-03-26 04:00:00 7.3 3 Nordeste 9 Este 0 -- -- 94
2020-03-26 03:00:00 8.7 5 Nordeste 13 Nordeste 0 -- -- 91
2020-03-26 02:00:00 8.8 7 Nordeste 11 Nordeste 0 -- -- 93
2020-03-26 01:00:00 9.3 4 Nordeste 10 Este 0 -- -- 88
2020-03-26 00:00:00 10.2 5 Este 10 Este 0 -- -- 86
2020-03-25 23:00:00 11.1 5 Nordeste 16 Oeste 0 -- -- 86
2020-03-25 22:00:00 13.6 9 Oeste 30 Sudoeste 0 -- -- 71
2020-03-25 21:00:00 15 24 Oeste 36 Oeste 0 -- -- 58
2020-03-25 20:00:00 14.4 7 Noroeste 33 Oeste 0 -- -- 59
2020-03-25 19:00:00 15.2 15 Oeste 36 Noroeste 0 -- -- 61
2020-03-25 18:00:00 15.9 6 Noroeste 13 Noroeste 0 -- -- 74
2020-03-25 17:00:00 15 13 Sudoeste 34 Sudoeste 0.6 -- -- 72
2020-03-25 16:00:00 17.2 5 Noroeste 16 Sur 0.2 -- -- 64
2020-03-25 15:00:00 17.9 3 Nordeste 23 Sur 0 -- -- 61
2020-03-25 14:00:00 16.6 6 Este 16 Sudeste 0 -- -- 59
2020-03-25 13:00:00 16.4 7 Sur 21 Sudoeste 0 -- -- 57
2020-03-25 12:00:00 15.7 8 Sur 16 Sudeste 0 -- -- 57
2020-03-25 11:00:00 16 4 Sudoeste 14 Sur 0 -- -- 55
2020-03-25 10:00:00 15.2 3 Sur 9 Sudeste 0 -- -- 59
2020-03-25 09:00:00 13.6 2 Sudeste 5 Sur 0 -- -- 70
2020-03-25 08:00:00 9.1 0 Calma 8 Norte 0 -- -- 84
2020-03-25 07:00:00 8.3 5 Norte 8 Norte 0 -- -- 85
2020-03-25 06:00:00 8.5 0 Calma 5 Noroeste 0 -- -- 84
2020-03-25 05:00:00 9.7 2 Este 5 Sudeste 0 -- -- 79
2020-03-25 04:00:00 10.8 2 Nordeste 12 Este 0 -- -- 74
2020-03-25 03:00:00 11.6 5 Sudeste 13 Este 0 -- -- 71
2020-03-25 02:00:00 12.4 9 Este 19 Nordeste 0 -- -- 68
2020-03-25 01:00:00 12.7 10 Nordeste 29 Nordeste 0 -- -- 67
2020-03-25 00:00:00 12.5 11 Nordeste 19 Nordeste 0 -- -- 71
2020-03-24 23:00:00 12 3 Nordeste 13 Nordeste 0 -- -- 77
2020-03-24 22:00:00 12.7 0 Calma 10 Nordeste 0 -- -- 73
2020-03-24 21:00:00 13.8 4 Nordeste 9 Norte 0 -- -- 67
2020-03-24 20:00:00 13.8 5 Este 9 Nordeste 0 -- -- 69
2020-03-24 19:00:00 14.6 5 Norte 20 Este 0 -- -- 65
2020-03-24 18:00:00 14.7 4 Nordeste 25 Nordeste 0 -- -- 68
2020-03-24 17:00:00 16.1 11 Nordeste 34 Este 0 -- -- 60
2020-03-24 16:00:00 16.9 17 Este 29 Este 0 -- -- 54
2020-03-24 15:00:00 16.9 24 Este 36 Este 0 -- -- 53
2020-03-24 14:00:00 17.4 18 Nordeste 40 Este 0 -- -- 52
2020-03-24 13:00:00 17.6 23 Este 44 Este 0 -- -- 50
2020-03-24 12:00:00 16.9 21 Nordeste 40 Este 0 -- -- 55
2020-03-24 11:00:00 14.7 19 Este 33 Este 0 -- -- 63
2020-03-24 10:00:00 15 22 Este 41 Este 0 -- -- 58
2020-03-24 09:00:00 13 17 Este 27 Este 0 -- -- 67
2020-03-24 08:00:00 10.9 10 Este 24 Este 0.4 -- -- 84
2020-03-24 07:00:00 11.2 19 Este 38 Nordeste 0 -- -- 76
2020-03-24 06:00:00 13.8 22 Este 37 Nordeste 0 -- -- 58
2020-03-24 05:00:00 13.8 15 Nordeste 38 Nordeste 0 -- -- 59
2020-03-24 04:00:00 13.4 13 Este 31 Este 0 -- -- 63
2020-03-24 03:00:00 13.5 22 Este 40 Este 0 -- -- 63
2020-03-24 02:00:00 13.3 16 Nordeste 35 Este 0 -- -- 66
2020-03-24 01:00:00 13.2 17 Este 31 Este 0 -- -- 68
2020-03-24 00:00:00 12.2 5 Este 27 Nordeste 0 -- -- 71
2020-03-23 23:00:00 13.2 18 Este 30 Este 0 -- -- 66
2020-03-23 22:00:00 11.3 4 Nordeste 12 Este 0 -- -- 74
2020-03-23 21:00:00 12.5 10 Este 39 Este 0 -- -- 67
2020-03-23 20:00:00 13.9 19 Este 50 Nordeste 0 -- -- 60
2020-03-23 19:00:00 16.4 20 Este 29 Este 0 -- -- 51
2020-03-23 18:00:00 17.4 17 Este 39 Nordeste 0 -- -- 51
2020-03-23 17:00:00 17.4 21 Este 41 Este 0 -- -- 46
2020-03-23 16:00:00 16.9 23 Nordeste 55 Este 0 -- -- 44
2020-03-23 15:00:00 16 21 Nordeste 40 Este 0 -- -- 55
2020-03-23 14:00:00 11.9 25 Nordeste 47 Nordeste 0.2 -- -- 75
2020-03-23 13:00:00 16.3 22 Este 45 Este 0 -- -- 60
2020-03-23 12:00:00 16 21 Este 35 Este 0 -- -- 64
2020-03-23 11:00:00 12.4 15 Nordeste 34 Este 0 -- -- 75
2020-03-23 10:00:00 11.7 18 Este 33 Este 0 -- -- 77
2020-03-23 09:00:00 10.7 9 Este 26 Este 0 -- -- 84
2020-03-23 08:00:00 10.1 3 Nordeste 14 Nordeste 0 -- -- 85
2020-03-23 07:00:00 9.7 6 Nordeste 11 Este 0 -- -- 87
2020-03-23 06:00:00 9.9 3 Nordeste 9 Norte 0 -- -- 87
2020-03-23 05:00:00 9.1 3 Norte 5 Norte 0 -- -- 93
2020-03-23 04:00:00 9.7 0 Calma 5 Sur 0 -- -- 94
2020-03-23 03:00:00 9.8 2 Noroeste 7 Norte 0 -- -- 95
2020-03-23 02:00:00 9.5 3 Oeste 6 Noroeste 0 -- -- 95
2020-03-23 01:00:00 9.8 3 Noroeste 8 Nordeste 0 -- -- 96
2020-03-23 00:00:00 10 2 Sudeste 9 Nordeste 0 -- -- 97
2020-03-22 23:00:00 9.9 7 Este 9 Este 0 -- -- 97
2020-03-22 22:00:00 10.2 4 Este 8 Nordeste 0.2 -- -- 96
2020-03-22 21:00:00 9.9 0 Calma 4 Norte 0 -- -- 95
2020-03-22 20:00:00 10.4 0 Calma 8 Oeste 0 -- -- 93
2020-03-22 19:00:00 10.9 5 Sudoeste 12 Oeste 0 -- -- 91
2020-03-22 18:00:00 11.6 0 Calma 21 Nordeste 0.4 -- -- 85
2020-03-22 17:00:00 11.6 12 Este 19 Este 0.8 -- -- 80
2020-03-22 16:00:00 15.9 5 Sudeste 17 Sur 0 -- -- 60
2020-03-22 15:00:00 16.8 11 Sur 18 Sur 0 -- -- 54
2020-03-22 14:00:00 17.1 5 Sudeste 12 Sudoeste 0 -- -- 55
2020-03-22 13:00:00 15 3 Este 8 Oeste 0 -- -- 59
2020-03-22 12:00:00 13.5 3 Norte 15 Sudeste 0 -- -- 66
2020-03-22 11:00:00 13.1 9 Sudeste 15 Sudeste 0 -- -- 69
2020-03-22 10:00:00 12 4 Oeste 8 Oeste 0 -- -- 70
2020-03-22 09:00:00 11.3 4 Sudoeste 6 Sudoeste 0 -- -- 74
2020-03-22 08:00:00 5.4 5 Noroeste 8 Noroeste 0 -- -- 93
2020-03-22 07:00:00 5 4 Norte 8 Sur 0 -- -- 91
2020-03-22 06:00:00 5.9 3 Noroeste 9 Oeste 0 -- -- 88
2020-03-22 05:00:00 7.3 3 Sur 10 Norte 0 -- -- 83
2020-03-22 04:00:00 8.2 6 Norte 17 Norte 0 -- -- 83
2020-03-22 03:00:00 8.5 4 Nordeste 9 Nordeste 0 -- -- 85
2020-03-22 02:00:00 7.3 2 Sudoeste 8 Nordeste 0 -- -- 88
2020-03-22 01:00:00 7 0 Calma 5 Norte 0 -- -- 88
2020-03-22 00:00:00 7.3 0 Calma 4 Sur 0 -- -- 85
2020-03-21 23:00:00 7.8 4 Norte 10 Norte 0 -- -- 81
2020-03-21 22:00:00 7.2 4 Norte 9 Nordeste 0 -- -- 88
2020-03-21 21:00:00 9 4 Sur 9 Nordeste 0 -- -- 80
2020-03-21 20:00:00 9.3 5 Nordeste 15 Este 0 -- -- 80
2020-03-21 19:00:00 12.4 11 Este 22 Este 0 -- -- 69
2020-03-21 18:00:00 13.3 11 Este 16 Este 0 -- -- 65
2020-03-21 17:00:00 12.6 7 Nordeste 14 Nordeste 0 -- -- 67
2020-03-21 16:00:00 12.1 6 Nordeste 14 Nordeste 0 -- -- 72
2020-03-21 15:00:00 11.7 7 Sudeste 11 Sudeste 0 -- -- 72
2020-03-21 14:00:00 11.9 5 Sudeste 11 Sudoeste 0 -- -- 79
2020-03-21 13:00:00 11.5 5 Noroeste 17 Norte 0.2 -- -- 79
2020-03-21 12:00:00 8.9 6 Noroeste 15 Noroeste 0.8 -- -- 89
2020-03-21 11:00:00 8.1 11 Noroeste 19 Noroeste 2.8 -- -- 95
2020-03-21 10:00:00 7.5 5 Noroeste 26 Sudoeste 6.8 -- -- 97
2020-03-21 09:00:00 8.9 7 Sudeste 26 Sudeste 2.6 -- -- 96
2020-03-21 08:00:00 9 13 Sudeste 40 Este 2 -- -- 94
2020-03-21 07:00:00 9.7 11 Este 30 Este 0.4 -- -- 90
2020-03-21 06:00:00 10.3 17 Este 33 Este 0 -- -- 87
2020-03-21 05:00:00 10.8 20 Este 40 Este 0 -- -- 81
2020-03-21 04:00:00 11 21 Este 35 Este 0 -- -- 80
2020-03-21 03:00:00 10.8 30 Este 48 Nordeste 0.4 -- -- 81
2020-03-21 02:00:00 11.5 29 Este 49 Este 0.2 -- -- 76
2020-03-21 01:00:00 12.8 31 Este 56 Nordeste 0 -- -- 68
2020-03-21 00:00:00 13 31 Este 52 Este 0 -- -- 68
2020-03-20 23:00:00 13.6 33 Este 51 Nordeste 0 -- -- 65
2020-03-20 22:00:00 14.2 31 Este 55 Nordeste 0 -- -- 64
2020-03-20 21:00:00 14.8 30 Este 54 Este 0 -- -- 61
2020-03-20 20:00:00 15 21 Este 39 Nordeste 0 -- -- 61
2020-03-20 19:00:00 15.1 14 Este 27 Nordeste 0 -- -- 61
2020-03-20 18:00:00 15.1 18 Este 32 Nordeste 0 -- -- 62
2020-03-20 17:00:00 14.8 14 Este 24 Este 0 -- -- 65
2020-03-20 16:00:00 14.4 8 Nordeste 23 Este 0 -- -- 67
2020-03-20 15:00:00 13.8 15 Este 28 Este 0 -- -- 69
2020-03-20 14:00:00 13.5 13 Este 21 Nordeste 0 -- -- 70
2020-03-20 13:00:00 12.4 6 Este 23 Este 0 -- -- 77
2020-03-20 12:00:00 12.9 15 Nordeste 26 Este 0 -- -- 71
2020-03-20 11:00:00 13.4 17 Este 38 Este 0 -- -- 71
2020-03-20 10:00:00 11.9 4 Norte 18 Este 0.4 -- -- 84
2020-03-20 09:00:00 12.1 10 Este 23 Este 0 -- -- 73
2020-03-20 08:00:00 12 9 Nordeste 27 Nordeste 0 -- -- 73
2020-03-20 07:00:00 12.1 17 Este 27 Este 0 -- -- 73
2020-03-20 06:00:00 12.5 16 Este 25 Este 0 -- -- 74
2020-03-20 05:00:00 12.4 12 Nordeste 19 Este 0 -- -- 74
2020-03-20 04:00:00 11.9 9 Nordeste 19 Este 0 -- -- 75
2020-03-20 03:00:00 12.6 8 Nordeste 26 Este 0 -- -- 72
2020-03-20 02:00:00 12.8 16 Este 30 Este 0 -- -- 71
2020-03-20 01:00:00 12.8 16 Este 32 Este 0 -- -- 72
2020-03-20 00:00:00 13.7 21 Este 35 Este 0 -- -- 68
2020-03-19 23:00:00 13.9 18 Este 29 Este 0 -- -- 66
2020-03-19 22:00:00 15.8 14 Este 20 Nordeste 0 -- -- 57
2020-03-19 21:00:00 14.7 5 Nordeste 10 Nordeste 0 -- -- 59
2020-03-19 20:00:00 15.1 5 Nordeste 15 Nordeste 0 -- -- 59
2020-03-19 19:00:00 15.3 8 Nordeste 16 Este 0 -- -- 62
2020-03-19 18:00:00 15.9 8 Nordeste 21 Este 0 -- -- 60
2020-03-19 17:00:00 16.4 12 Este 26 Este 0 -- -- 58
2020-03-19 16:00:00 16.7 14 Este 23 Este 0 -- -- 58
2020-03-19 15:00:00 15.8 12 Nordeste 24 Este 0 -- -- 60
2020-03-19 14:00:00 15.4 16 Este 30 Este 0 -- -- 59
2020-03-19 13:00:00 14.8 17 Este 32 Nordeste 0 -- -- 59
2020-03-19 12:00:00 14.5 21 Este 36 Este 0 -- -- 59
2020-03-19 11:00:00 14.2 19 Este 31 Este 0 -- -- 58
2020-03-19 10:00:00 13 18 Este 27 Nordeste 0 -- -- 61
2020-03-19 09:00:00 11.8 8 Nordeste 20 Nordeste 0 -- -- 65
2020-03-19 08:00:00 9.9 4 Este 18 Nordeste 0 -- -- 73
2020-03-19 07:00:00 11.7 10 Nordeste 17 Nordeste 0 -- -- 64
2020-03-19 06:00:00 11.4 5 Nordeste 23 Este 0 -- -- 66
2020-03-19 05:00:00 13 17 Nordeste 31 Este 0 -- -- 60
2020-03-19 04:00:00 11.7 8 Nordeste 15 Nordeste 0 -- -- 75
2020-03-19 03:00:00 12.4 5 Nordeste 13 Nordeste 0 -- -- 72
2020-03-19 02:00:00 13 5 Nordeste 13 Este 0 -- -- 72
2020-03-19 01:00:00 13.3 4 Nordeste 10 Nordeste 0 -- -- 70
2020-03-19 00:00:00 13.4 4 Norte 15 Nordeste 0 -- -- 70
2020-03-18 23:00:00 13.2 5 Norte 9 Nordeste 0 -- -- 72
2020-03-18 22:00:00 13.8 4 Sudeste 10 Sudeste 0 -- -- 69
2020-03-18 21:00:00 14 3 Este 9 Norte 0 -- -- 66
2020-03-18 20:00:00 15.5 6 Norte 21 Este 0 -- -- 61
2020-03-18 19:00:00 16.5 13 Este 21 Este 0 -- -- 58
2020-03-18 18:00:00 17.8 18 Este 30 Nordeste 0 -- -- 54
2020-03-18 17:00:00 18.5 7 Este 38 Este 0 -- -- 52
2020-03-18 16:00:00 18.7 23 Este 36 Este 0 -- -- 50
2020-03-18 15:00:00 19.2 13 Este 37 Este 0 -- -- 52
2020-03-18 14:00:00 18.1 24 Este 38 Este 0 -- -- 49
2020-03-18 13:00:00 17.4 13 Nordeste 42 Este 0 -- -- 56
2020-03-18 12:00:00 16.6 22 Este 51 Este 0 -- -- 61
2020-03-18 11:00:00 15.7 28 Este 47 Este 0 -- -- 61
2020-03-18 10:00:00 15 24 Este 41 Este 0 -- -- 63
2020-03-18 09:00:00 13.8 25 Este 40 Este 0 -- -- 64
2020-03-18 08:00:00 12.5 21 Este 37 Este 0 -- -- 70
2020-03-18 07:00:00 11.2 3 Oeste 12 Norte 0 -- -- 78
2020-03-18 06:00:00 10.8 3 Este 9 Este 0 -- -- 79
2020-03-18 05:00:00 12.4 10 Nordeste 27 Este 0 -- -- 74
2020-03-18 04:00:00 13 19 Este 33 Este 0 -- -- 73
2020-03-18 03:00:00 13.3 18 Este 39 Este 0 -- -- 73
2020-03-18 02:00:00 13.6 21 Este 33 Este 0 -- -- 73
2020-03-18 01:00:00 15.6 19 Nordeste 33 Este 0 -- -- 63
2020-03-18 00:00:00 14.5 14 Este 31 Nordeste 0 -- -- 68
2020-03-17 23:00:00 15.7 22 Este 39 Este 0 -- -- 62
2020-03-17 22:00:00 15.4 18 Este 38 Nordeste 0 -- -- 66
2020-03-17 21:00:00 16.4 19 Este 32 Nordeste 0 -- -- 61
2020-03-17 20:00:00 16.6 16 Nordeste 33 Este 0 -- -- 60
2020-03-17 19:00:00 17.2 15 Este 37 Nordeste 0 -- -- 59
2020-03-17 18:00:00 18.5 23 Este 45 Nordeste 0 -- -- 53
2020-03-17 17:00:00 18.3 26 Nordeste 43 Nordeste 0 -- -- 53
2020-03-17 16:00:00 16.5 28 Este 46 Este 0 -- -- 56
2020-03-17 15:00:00 17.2 30 Este 50 Nordeste 0 -- -- 53
2020-03-17 14:00:00 16.2 29 Este 50 Este 0 -- -- 54
2020-03-17 13:00:00 15.6 29 Este 49 Este 0 -- -- 56
2020-03-17 12:00:00 14.3 26 Este 42 Nordeste 0 -- -- 54
2020-03-17 11:00:00 13.9 23 Este 45 Este 0 -- -- 60
2020-03-17 10:00:00 10.1 9 Sudoeste 13 Sudoeste 0 -- -- 75
2020-03-17 09:00:00 7.2 4 Oeste 12 Oeste 0 -- -- 79
2020-03-17 08:00:00 3.8 6 Noroeste 12 Oeste 0 -- -- 84
2020-03-17 07:00:00 3 6 Noroeste 7 Noroeste 0 -- -- 87
2020-03-17 06:00:00 3.7 3 Norte 10 Noroeste 0 -- -- 84
2020-03-17 05:00:00 4 8 Este 15 Este 0 -- -- 83
2020-03-17 04:00:00 4.6 2 Nordeste 7 Nordeste 0 -- -- 82
2020-03-17 03:00:00 4.5 2 Norte 6 Nordeste 0 -- -- 85
2020-03-17 02:00:00 3 2 Nordeste 5 Este 0 -- -- 91
2020-03-17 01:00:00 4 2 Sur 16 Este 0 -- -- 86
2020-03-17 00:00:00 4.9 10 Nordeste 17 Nordeste 0 -- -- 88
2020-03-16 23:00:00 5.3 5 Este 22 Norte 0 -- -- 82
2020-03-16 22:00:00 6.6 18 Nordeste 30 Nordeste 0.2 -- -- 78
2020-03-16 21:00:00 6.4 14 Nordeste 24 Nordeste 0 -- -- 82
2020-03-16 20:00:00 6.1 4 Noroeste 26 Este 0 -- -- 88
2020-03-16 19:00:00 6.8 8 Este 27 Oeste 0 -- -- 84
2020-03-16 18:00:00 7.2 8 Oeste 12 Noroeste 1 -- -- 83
2020-03-16 17:00:00 7.2 5 Noroeste 17 Sudoeste 0.6 -- -- 77
2020-03-16 16:00:00 8 10 Sudoeste 21 Nordeste 0.4 -- -- 74
2020-03-16 15:00:00 7.5 15 Nordeste 32 Este 0.2 -- -- 73
2020-03-16 14:00:00 8 23 Nordeste 38 Nordeste 0 -- -- 68
2020-03-16 13:00:00 9.6 6 Sudoeste 20 Oeste 0 -- -- 63
2020-03-16 12:00:00 9.1 6 Oeste 21 Oeste 0 -- -- 59
2020-03-16 11:00:00 8.9 4 Este 26 Nordeste 0 -- -- 68
2020-03-16 10:00:00 7.6 3 Norte 20 Nordeste 0 -- -- 72
2020-03-16 09:00:00 7.8 4 Nordeste 13 Este 0 -- -- 73
2020-03-16 08:00:00 4 5 Nordeste 12 Noroeste 0 -- -- 82
2020-03-16 07:00:00 4.1 6 Nordeste 22 Oeste 0 -- -- 82
2020-03-16 06:00:00 4.7 5 Nordeste 14 Nordeste 0 -- -- 79
2020-03-16 05:00:00 5.4 5 Sudeste 17 Este 0 -- -- 80
2020-03-16 04:00:00 6.2 5 Nordeste 10 Nordeste 0 -- -- 78
2020-03-16 03:00:00 6.6 4 Noroeste 17 Nordeste 0 -- -- 81
2020-03-16 02:00:00 8 2 Nordeste 21 Sudoeste 0 -- -- 71
2020-03-16 01:00:00 9.3 16 Sudoeste 30 Sudoeste 0 -- -- 70
2020-03-16 00:00:00 9.7 4 Sur 10 Sudoeste 0 -- -- 80
2020-03-15 23:00:00 10.2 4 Sudoeste 17 Oeste 0 -- -- 74
2020-03-15 22:00:00 11.8 4 Noroeste 18 Sudoeste 0 -- -- 67
2020-03-15 21:00:00 12.9 7 Sudoeste 21 Sur 0 -- -- 67
2020-03-15 20:00:00 14.3 9 Sudoeste 25 Sudoeste 0 -- -- 77
2020-03-15 19:00:00 15.7 13 Oeste 23 Oeste 0 -- -- 83
2020-03-15 18:00:00 16.4 14 Sudoeste 35 Sudoeste 0.8 -- -- 81
2020-03-15 17:00:00 19 13 Sudoeste 31 Oeste 0 -- -- 61
2020-03-15 16:00:00 21.3 18 Sudoeste 36 Sudoeste 0 -- -- 52
2020-03-15 15:00:00 21.7 18 Sur 28 Sur 0 -- -- 53
2020-03-15 14:00:00 20.9 9 Sudoeste 21 Sur 0 -- -- 56
2020-03-15 13:00:00 19.4 4 Oeste 10 Oeste 0 -- -- 55
2020-03-15 12:00:00 19.5 4 Sudeste 12 Sudeste 0 -- -- 60
2020-03-15 11:00:00 16.9 0 Calma 6 Oeste 0 -- -- 69
2020-03-15 10:00:00 14.9 0 Calma 4 Sudeste 0 -- -- 72
2020-03-15 09:00:00 12.9 0 Calma 4 Sur 0 -- -- 82
2020-03-15 08:00:00 9.2 0 Calma 5 Norte 0 -- -- 89
2020-03-15 07:00:00 8.5 3 Este 4 Este 0 -- -- 90
2020-03-15 06:00:00 8.7 3 Oeste 4 Noroeste 0 -- -- 89
2020-03-15 05:00:00 9.1 3 Este 6 Este 0 -- -- 89
2020-03-15 04:00:00 8.7 5 Este 7 Este 0 -- -- 89
2020-03-15 03:00:00 10.4 3 Norte 8 Este 0 -- -- 83
2020-03-15 02:00:00 11 4 Este 10 Este 0 -- -- 82
2020-03-15 01:00:00 11.6 5 Sudeste 7 Sudeste 0 -- -- 81
2020-03-15 00:00:00 12.4 4 Este 6 Noroeste 0 -- -- 78
2020-03-14 23:00:00 13.7 2 Norte 9 Este 0 -- -- 74
2020-03-14 22:00:00 14.5 6 Este 9 Noroeste 0 -- -- 73
2020-03-14 21:00:00 16.6 6 Norte 9 Norte 0 -- -- 64
2020-03-14 20:00:00 17.1 6 Norte 8 Norte 0 -- -- 66
2020-03-14 19:00:00 22.7 4 Sur 9 Sur 0 -- -- 48
2020-03-14 18:00:00 24.2 6 Sur 12 Sudeste 0 -- -- 44
2020-03-14 17:00:00 24.9 6 Sur 13 Sur 0 -- -- 40
2020-03-14 16:00:00 24.1 8 Sudeste 14 Sudeste 0 -- -- 39
2020-03-14 15:00:00 23.2 5 Este 13 Sudoeste 0 -- -- 45
2020-03-14 14:00:00 22.1 5 Sudeste 11 Este 0 -- -- 48
2020-03-14 13:00:00 20 4 Sudeste 13 Este 0 -- -- 57
2020-03-14 12:00:00 19.7 3 Sur 12 Sur 0 -- -- 58
2020-03-14 11:00:00 18.7 4 Sur 10 Sur 0 -- -- 59
2020-03-14 10:00:00 17.5 3 Este 5 Este 0 -- -- 68
2020-03-14 09:00:00 15.6 0 Calma 6 Oeste 0 -- -- 82
2020-03-14 08:00:00 10.8 0 Calma 8 Nordeste 0 -- -- 95
2020-03-14 07:00:00 8.7 4 Nordeste 6 Nordeste 0 -- -- 94
2020-03-14 06:00:00 11.5 6 Noroeste 9 Noroeste 0 -- -- 91
2020-03-14 05:00:00 11.3 0 Calma 8 Este 0 -- -- 93
2020-03-14 04:00:00 11.9 3 Nordeste 6 Oeste 0 -- -- 90
2020-03-14 03:00:00 11.1 3 Nordeste 10 Este 0 -- -- 94
2020-03-14 02:00:00 11.4 4 Norte 8 Este 0 -- -- 92
2020-03-14 01:00:00 12.4 2 Noroeste 6 Norte 0 -- -- 89
2020-03-14 00:00:00 14.1 3 Norte 6 Norte 0 -- -- 84
2020-03-13 23:00:00 13.6 3 Norte 8 Este 0 -- -- 90
2020-03-13 22:00:00 13.8 4 Este 8 Este 0 -- -- 87
2020-03-13 21:00:00 16 4 Norte 8 Norte 0 -- -- 78
2020-03-13 20:00:00 17.5 0 Calma 4 Este 0 -- -- 74
2020-03-13 19:00:00 20.9 0 Calma 13 Sur 0 -- -- 62
2020-03-13 18:00:00 21.9 11 Sudoeste 23 Sudoeste 0 -- -- 57
2020-03-13 17:00:00 22.7 12 Sudoeste 19 Oeste 0 -- -- 55
2020-03-13 16:00:00 23.3 10 Sudoeste 18 Sudoeste 0 -- -- 50
2020-03-13 15:00:00 22.9 7 Sudoeste 19 Sudoeste 0 -- -- 52
2020-03-13 14:00:00 22.1 8 Sur 15 Sudoeste 0 -- -- 58
2020-03-13 13:00:00 20.6 6 Oeste 15 Sur 0 -- -- 63
2020-03-13 12:00:00 20 4 Sudoeste 18 Sur 0 -- -- 61
2020-03-13 11:00:00 19 4 Sudeste 10 Este 0 -- -- 66
2020-03-13 10:00:00 16 7 Este 11 Este 0 -- -- 75
2020-03-13 09:00:00 14.5 2 Este 5 Sudeste 0 -- -- 81
2020-03-13 08:00:00 9.9 0 Calma 4 Oeste 0 -- -- 91
2020-03-13 07:00:00 9.9 3 Oeste 4 Nordeste 0 -- -- 93
2020-03-13 06:00:00 10 4 Nordeste 6 Este 0 -- -- 91
2020-03-13 05:00:00 11.2 3 Nordeste 4 Este 0 -- -- 85
2020-03-13 04:00:00 12.1 3 Norte 8 Este 0 -- -- 83
2020-03-13 03:00:00 12.6 6 Nordeste 8 Nordeste 0 -- -- 84
2020-03-13 02:00:00 15.4 5 Sudoeste 12 Sudoeste 0 -- -- 69
2020-03-13 01:00:00 14 3 Nordeste 7 Sur 0 -- -- 76
2020-03-13 00:00:00 15.4 4 Norte 10 Norte 0 -- -- 66
2020-03-12 23:00:00 15.9 3 Este 6 Sudeste 0 -- -- 65
2020-03-12 22:00:00 16 0 Calma 7 Este 0 -- -- 67
2020-03-12 21:00:00 18.6 5 Noroeste 8 Norte 0 -- -- 55
2020-03-12 20:00:00 20.4 6 Oeste 10 Sudoeste 0 -- -- 53
2020-03-12 19:00:00 21.8 10 Oeste 24 Sudoeste 0 -- -- 51
2020-03-12 18:00:00 25.3 11 Sudoeste 19 Sudoeste 0 -- -- 39
2020-03-12 17:00:00 26.8 6 Sudeste 14 Sur 0 -- -- 38
2020-03-12 16:00:00 27.6 6 Sudoeste 15 Sudoeste 0 -- -- 34
2020-03-12 15:00:00 26.9 9 Sudoeste 14 Sudoeste 0 -- -- 33
2020-03-12 14:00:00 25.9 3 Oeste 7 Este 0 -- -- 39
2020-03-12 13:00:00 23.9 5 Sur 8 Sudeste 0 -- -- 43
2020-03-12 12:00:00 22.3 0 Calma 8 Nordeste 0 -- -- 53
2020-03-12 11:00:00 20.4 0 Calma 4 Oeste 0 -- -- 59
2020-03-12 10:00:00 14.7 4 Nordeste 5 Nordeste 0 -- -- 76
2020-03-12 09:00:00 14.7 0 Calma 10 Noroeste 0 -- -- 78
2020-03-12 08:00:00 10.8 9 Noroeste 12 Noroeste 0 -- -- 84
2020-03-12 07:00:00 10.5 0 Calma 5 Sudeste 0 -- -- 84
2020-03-12 06:00:00 10.6 3 Sudeste 7 Sur 0 -- -- 82
2020-03-12 05:00:00 11.4 4 Oeste 6 Este 0 -- -- 81
2020-03-12 04:00:00 11 4 Este 8 Este 0 -- -- 84
2020-03-12 03:00:00 11.8 0 Calma 5 Este 0 -- -- 83
2020-03-12 02:00:00 12.4 3 Este 7 Norte 0 -- -- 82
2020-03-12 01:00:00 13.3 3 Este 5 Este 0 -- -- 78
2020-03-12 00:00:00 14 4 Nordeste 6 Nordeste 0 -- -- 77
2020-03-11 23:00:00 14.6 4 Nordeste 9 Nordeste 0 -- -- 77
2020-03-11 22:00:00 15.8 4 Norte 7 Norte 0 -- -- 72
2020-03-11 21:00:00 17.9 0 Calma 7 Norte 0 -- -- 69
2020-03-11 20:00:00 18 4 Este 8 Este 0 -- -- 76
2020-03-11 19:00:00 20.9 3 Norte 5 Sur 0 -- -- 64
2020-03-11 18:00:00 23.6 3 Sur 8 Sur 0 -- -- 55
2020-03-11 17:00:00 23.9 6 Sudoeste 11 Sudoeste 0 -- -- 53
2020-03-11 16:00:00 24.8 5 Sur 12 Sur 0 -- -- 48
2020-03-11 15:00:00 25.7 5 Sudeste 10 Sur 0 -- -- 42
2020-03-11 14:00:00 23.8 5 Este 11 Sudeste 0 -- -- 46
2020-03-11 13:00:00 22.9 4 Este 10 Sudeste 0 -- -- 51
2020-03-11 12:00:00 21.4 4 Este 7 Sudeste 0 -- -- 51
2020-03-11 11:00:00 20.5 2 Sur 5 Sudeste 0 -- -- 55
2020-03-11 10:00:00 17.8 2 Sur 4 Sudeste 0 -- -- 63
2020-03-11 09:00:00 13.3 2 Este -- -- 0 -- -- 78
2020-03-11 08:00:00 8.9 3 Este 4 Este 0 -- -- 92
2020-03-11 07:00:00 8.2 0 Calma 5 Este 0 -- -- 93
2020-03-11 06:00:00 8.5 3 Este 5 Este 0 -- -- 93
2020-03-11 05:00:00 8.6 3 Este 5 Este 0 -- -- 91
2020-03-11 04:00:00 9.1 0 Calma 8 Este 0 -- -- 90
2020-03-11 03:00:00 9.9 3 Nordeste 5 Este 0 -- -- 88
2020-03-11 02:00:00 9.6 4 Este 6 Este 0 -- -- 87
2020-03-11 01:00:00 10.5 2 Nordeste 8 Este 0 -- -- 86
2020-03-11 00:00:00 12.9 3 Nordeste 6 Nordeste 0 -- -- 73
2020-03-10 23:00:00 13 5 Nordeste 9 Este 0 -- -- 76
2020-03-10 22:00:00 14.1 3 Este 8 Norte 0 -- -- 69
2020-03-10 21:00:00 15.1 4 Oeste 13 Norte 0 -- -- 66
2020-03-10 20:00:00 16.4 6 Norte 9 Norte 0 -- -- 61
2020-03-10 19:00:00 21.9 3 Sur 9 Sur 0 -- -- 44
2020-03-10 18:00:00 23.5 7 Sudeste 11 Sudeste 0 -- -- 40
2020-03-10 17:00:00 23.8 4 Sudoeste 16 Oeste 0 -- -- 40
2020-03-10 16:00:00 23.6 5 Sudoeste 10 Sur 0 -- -- 39
2020-03-10 15:00:00 21.6 4 Sudoeste 16 Sudoeste 0 -- -- 40
2020-03-10 14:00:00 21.9 6 Sur 13 Sur 0 -- -- 42
2020-03-10 13:00:00 19.9 5 Sudeste 10 Sudeste 0 -- -- 45
2020-03-10 12:00:00 17.9 4 Sudeste 8 Este 0 -- -- 46
2020-03-10 11:00:00 16.4 2 Sudoeste 7 Sur 0 -- -- 57
2020-03-10 10:00:00 13.3 3 Sur 6 Este 0 -- -- 67
2020-03-10 09:00:00 9.7 3 Oeste 6 Nordeste 0 -- -- 81
2020-03-10 08:00:00 5.9 4 Nordeste 6 Este 0 -- -- 89
2020-03-10 07:00:00 6.7 3 Nordeste 4 Oeste 0 -- -- 88
2020-03-10 06:00:00 8 4 Oeste 7 Oeste 0 -- -- 82
2020-03-10 05:00:00 8.1 2 Sudoeste 10 Norte 0 -- -- 77
2020-03-10 04:00:00 10.7 6 Norte 9 Norte 0 -- -- 65
2020-03-10 03:00:00 12.1 5 Norte 12 Norte 0 -- -- 61
2020-03-10 02:00:00 9.6 4 Norte 10 Nordeste 0 -- -- 74
2020-03-10 01:00:00 10.7 6 Norte 9 Norte 0 -- -- 68
2020-03-10 00:00:00 10.2 6 Sudeste 13 Sudeste 0 -- -- 73